sensor_id;sensor_type;location;lat;lon;timestamp;P1;durP1;ratioP1;P2;durP2;ratioP2
30543;SDS011;43388;46.308;4.600;2023-04-25T00:01:39;9.43;;;5.70;;
30543;SDS011;43388;46.308;4.600;2023-04-25T00:04:05;8.98;;;5.25;;
30543;SDS011;43388;46.308;4.600;2023-04-25T00:06:31;8.07;;;5.38;;
30543;SDS011;43388;46.308;4.600;2023-04-25T00:08:57;9.23;;;6.32;;
30543;SDS011;43388;46.308;4.600;2023-04-25T00:11:23;9.68;;;5.72;;
30543;SDS011;43388;46.308;4.600;2023-04-25T00:13:49;7.53;;;5.65;;
30543;SDS011;43388;46.308;4.600;2023-04-25T00:16:16;8.63;;;5.60;;
30543;SDS011;43388;46.308;4.600;2023-04-25T00:18:42;9.15;;;5.70;;
30543;SDS011;43388;46.308;4.600;2023-04-25T00:21:08;7.90;;;5.35;;
30543;SDS011;43388;46.308;4.600;2023-04-25T00:23:34;7.38;;;5.53;;
30543;SDS011;43388;46.308;4.600;2023-04-25T00:26:01;9.02;;;5.43;;
30543;SDS011;43388;46.308;4.600;2023-04-25T00:28:27;8.80;;;5.43;;
30543;SDS011;43388;46.308;4.600;2023-04-25T00:30:53;7.30;;;5.53;;
30543;SDS011;43388;46.308;4.600;2023-04-25T00:33:19;11.07;;;5.60;;
30543;SDS011;43388;46.308;4.600;2023-04-25T00:35:46;9.25;;;5.20;;
30543;SDS011;43388;46.308;4.600;2023-04-25T00:38:12;7.90;;;5.22;;
30543;SDS011;43388;46.308;4.600;2023-04-25T00:40:38;7.78;;;6.30;;
30543;SDS011;43388;46.308;4.600;2023-04-25T00:43:04;10.27;;;6.05;;
30543;SDS011;43388;46.308;4.600;2023-04-25T00:45:30;7.88;;;5.53;;
30543;SDS011;43388;46.308;4.600;2023-04-25T00:47:56;8.05;;;6.05;;
30543;SDS011;43388;46.308;4.600;2023-04-25T00:50:23;9.85;;;5.90;;
30543;SDS011;43388;46.308;4.600;2023-04-25T00:52:49;8.05;;;6.35;;
30543;SDS011;43388;46.308;4.600;2023-04-25T00:55:16;6.32;;;5.25;;
30543;SDS011;43388;46.308;4.600;2023-04-25T00:57:42;11.18;;;5.15;;
30543;SDS011;43388;46.308;4.600;2023-04-25T01:00:08;8.98;;;5.53;;
30543;SDS011;43388;46.308;4.600;2023-04-25T01:02:36;8.32;;;5.28;;
30543;SDS011;43388;46.308;4.600;2023-04-25T01:05:02;11.85;;;5.22;;
30543;SDS011;43388;46.308;4.600;2023-04-25T01:07:28;10.75;;;6.13;;
30543;SDS011;43388;46.308;4.600;2023-04-25T01:09:55;8.57;;;5.60;;
30543;SDS011;43388;46.308;4.600;2023-04-25T01:12:21;6.70;;;5.93;;
30543;SDS011;43388;46.308;4.600;2023-04-25T01:14:48;13.55;;;5.65;;
30543;SDS011;43388;46.308;4.600;2023-04-25T01:17:14;14.07;;;5.70;;
30543;SDS011;43388;46.308;4.600;2023-04-25T01:19:41;7.85;;;5.88;;
30543;SDS011;43388;46.308;4.600;2023-04-25T01:22:07;9.00;;;6.38;;
30543;SDS011;43388;46.308;4.600;2023-04-25T01:24:35;12.55;;;6.07;;
30543;SDS011;43388;46.308;4.600;2023-04-25T01:27:01;9.93;;;6.03;;
30543;SDS011;43388;46.308;4.600;2023-04-25T01:29:27;8.38;;;6.35;;
30543;SDS011;43388;46.308;4.600;2023-04-25T01:31:54;9.25;;;6.25;;
30543;SDS011;43388;46.308;4.600;2023-04-25T01:34:20;11.70;;;6.65;;
30543;SDS011;43388;46.308;4.600;2023-04-25T01:36:49;11.25;;;6.55;;
30543;SDS011;43388;46.308;4.600;2023-04-25T01:39:16;17.38;;;6.60;;
30543;SDS011;43388;46.308;4.600;2023-04-25T01:41:42;8.95;;;6.25;;
30543;SDS011;43388;46.308;4.600;2023-04-25T01:44:09;12.15;;;6.47;;
30543;SDS011;43388;46.308;4.600;2023-04-25T01:46:35;8.93;;;6.40;;
30543;SDS011;43388;46.308;4.600;2023-04-25T01:49:01;11.93;;;6.50;;
30543;SDS011;43388;46.308;4.600;2023-04-25T01:51:27;9.50;;;6.68;;
30543;SDS011;43388;46.308;4.600;2023-04-25T01:53:53;14.45;;;7.18;;
30543;SDS011;43388;46.308;4.600;2023-04-25T01:56:19;14.55;;;6.93;;
30543;SDS011;43388;46.308;4.600;2023-04-25T01:58:46;11.30;;;7.65;;
30543;SDS011;43388;46.308;4.600;2023-04-25T02:01:12;16.05;;;7.03;;
30543;SDS011;43388;46.308;4.600;2023-04-25T02:03:38;14.95;;;7.72;;
30543;SDS011;43388;46.308;4.600;2023-04-25T02:06:04;16.10;;;6.72;;
30543;SDS011;43388;46.308;4.600;2023-04-25T02:08:30;10.40;;;6.40;;
30543;SDS011;43388;46.308;4.600;2023-04-25T02:10:57;9.80;;;6.05;;
30543;SDS011;43388;46.308;4.600;2023-04-25T02:13:23;12.07;;;6.80;;
30543;SDS011;43388;46.308;4.600;2023-04-25T02:15:49;13.15;;;7.18;;
30543;SDS011;43388;46.308;4.600;2023-04-25T02:18:15;12.35;;;7.30;;
30543;SDS011;43388;46.308;4.600;2023-04-25T02:20:41;11.75;;;7.53;;
30543;SDS011;43388;46.308;4.600;2023-04-25T02:23:07;12.52;;;8.15;;
30543;SDS011;43388;46.308;4.600;2023-04-25T02:25:33;11.25;;;8.43;;
30543;SDS011;43388;46.308;4.600;2023-04-25T02:28:00;14.45;;;8.48;;
30543;SDS011;43388;46.308;4.600;2023-04-25T02:30:26;11.10;;;9.95;;
30543;SDS011;43388;46.308;4.600;2023-04-25T02:32:52;16.50;;;9.05;;
30543;SDS011;43388;46.308;4.600;2023-04-25T02:35:18;15.00;;;8.75;;
30543;SDS011;43388;46.308;4.600;2023-04-25T02:37:44;15.88;;;9.50;;
30543;SDS011;43388;46.308;4.600;2023-04-25T02:40:10;17.27;;;9.15;;
30543;SDS011;43388;46.308;4.600;2023-04-25T02:42:36;15.88;;;8.52;;
30543;SDS011;43388;46.308;4.600;2023-04-25T02:45:02;11.40;;;9.15;;
30543;SDS011;43388;46.308;4.600;2023-04-25T02:47:29;15.32;;;10.05;;
30543;SDS011;43388;46.308;4.600;2023-04-25T02:49:55;15.23;;;9.05;;
30543;SDS011;43388;46.308;4.600;2023-04-25T02:52:21;13.98;;;8.45;;
30543;SDS011;43388;46.308;4.600;2023-04-25T02:54:47;12.93;;;8.70;;
30543;SDS011;43388;46.308;4.600;2023-04-25T02:57:13;16.60;;;8.95;;
30543;SDS011;43388;46.308;4.600;2023-04-25T02:59:39;11.38;;;8.43;;
30543;SDS011;43388;46.308;4.600;2023-04-25T03:02:05;14.50;;;9.07;;
30543;SDS011;43388;46.308;4.600;2023-04-25T03:04:31;16.30;;;7.88;;
30543;SDS011;43388;46.308;4.600;2023-04-25T03:06:58;13.63;;;8.85;;
30543;SDS011;43388;46.308;4.600;2023-04-25T03:09:25;16.10;;;8.88;;
30543;SDS011;43388;46.308;4.600;2023-04-25T03:11:51;17.80;;;9.18;;
30543;SDS011;43388;46.308;4.600;2023-04-25T03:14:17;15.80;;;8.65;;
30543;SDS011;43388;46.308;4.600;2023-04-25T03:16:42;13.25;;;9.15;;
30543;SDS011;43388;46.308;4.600;2023-04-25T03:19:08;11.60;;;8.98;;
30543;SDS011;43388;46.308;4.600;2023-04-25T03:21:35;17.40;;;10.00;;
30543;SDS011;43388;46.308;4.600;2023-04-25T03:24:02;15.82;;;8.98;;
30543;SDS011;43388;46.308;4.600;2023-04-25T03:26:28;16.17;;;9.27;;
30543;SDS011;43388;46.308;4.600;2023-04-25T03:28:54;13.27;;;9.43;;
30543;SDS011;43388;46.308;4.600;2023-04-25T03:31:20;11.90;;;10.15;;
30543;SDS011;43388;46.308;4.600;2023-04-25T03:33:47;13.98;;;10.38;;
30543;SDS011;43388;46.308;4.600;2023-04-25T03:36:13;17.67;;;9.52;;
30543;SDS011;43388;46.308;4.600;2023-04-25T03:38:39;18.95;;;9.93;;
30543;SDS011;43388;46.308;4.600;2023-04-25T03:41:06;14.77;;;9.68;;
30543;SDS011;43388;46.308;4.600;2023-04-25T03:43:32;16.63;;;9.65;;
30543;SDS011;43388;46.308;4.600;2023-04-25T03:45:58;13.45;;;10.00;;
30543;SDS011;43388;46.308;4.600;2023-04-25T03:48:25;13.93;;;10.35;;
30543;SDS011;43388;46.308;4.600;2023-04-25T03:50:52;18.95;;;11.68;;
30543;SDS011;43388;46.308;4.600;2023-04-25T03:53:18;20.05;;;11.40;;
30543;SDS011;43388;46.308;4.600;2023-04-25T03:55:44;19.13;;;9.98;;
30543;SDS011;43388;46.308;4.600;2023-04-25T03:58:10;14.05;;;9.52;;
30543;SDS011;43388;46.308;4.600;2023-04-25T04:00:36;17.80;;;10.93;;
30543;SDS011;43388;46.308;4.600;2023-04-25T04:03:02;19.15;;;11.05;;
30543;SDS011;43388;46.308;4.600;2023-04-25T04:05:28;14.63;;;9.35;;
30543;SDS011;43388;46.308;4.600;2023-04-25T04:07:54;15.60;;;10.02;;
30543;SDS011;43388;46.308;4.600;2023-04-25T04:10:21;19.35;;;9.50;;
30543;SDS011;43388;46.308;4.600;2023-04-25T04:12:47;12.00;;;10.77;;
30543;SDS011;43388;46.308;4.600;2023-04-25T04:15:13;13.98;;;9.13;;
30543;SDS011;43388;46.308;4.600;2023-04-25T04:17:39;14.73;;;9.82;;
30543;SDS011;43388;46.308;4.600;2023-04-25T04:20:06;13.43;;;9.35;;
30543;SDS011;43388;46.308;4.600;2023-04-25T04:22:33;16.35;;;10.32;;
30543;SDS011;43388;46.308;4.600;2023-04-25T04:24:59;16.70;;;10.02;;
30543;SDS011;43388;46.308;4.600;2023-04-25T04:27:25;13.45;;;10.00;;
30543;SDS011;43388;46.308;4.600;2023-04-25T04:29:53;15.05;;;10.98;;
30543;SDS011;43388;46.308;4.600;2023-04-25T04:32:19;17.35;;;11.20;;
30543;SDS011;43388;46.308;4.600;2023-04-25T04:34:45;22.05;;;11.05;;
30543;SDS011;43388;46.308;4.600;2023-04-25T04:37:12;16.73;;;10.27;;
30543;SDS011;43388;46.308;4.600;2023-04-25T04:39:38;15.05;;;11.27;;
30543;SDS011;43388;46.308;4.600;2023-04-25T04:42:04;17.15;;;11.05;;
30543;SDS011;43388;46.308;4.600;2023-04-25T04:44:31;13.45;;;11.10;;
30543;SDS011;43388;46.308;4.600;2023-04-25T04:47:00;14.60;;;10.43;;
30543;SDS011;43388;46.308;4.600;2023-04-25T04:49:27;15.23;;;10.80;;
30543;SDS011;43388;46.308;4.600;2023-04-25T04:51:53;21.10;;;9.80;;
30543;SDS011;43388;46.308;4.600;2023-04-25T04:54:19;16.70;;;9.85;;
30543;SDS011;43388;46.308;4.600;2023-04-25T04:56:46;16.63;;;9.30;;
30543;SDS011;43388;46.308;4.600;2023-04-25T04:59:12;13.52;;;9.82;;
30543;SDS011;43388;46.308;4.600;2023-04-25T05:01:38;17.30;;;10.73;;
30543;SDS011;43388;46.308;4.600;2023-04-25T05:04:05;13.98;;;10.00;;
30543;SDS011;43388;46.308;4.600;2023-04-25T05:06:31;14.85;;;9.27;;
30543;SDS011;43388;46.308;4.600;2023-04-25T05:08:57;13.60;;;9.70;;
30543;SDS011;43388;46.308;4.600;2023-04-25T05:11:23;15.13;;;9.40;;
30543;SDS011;43388;46.308;4.600;2023-04-25T05:13:51;20.50;;;9.63;;
30543;SDS011;43388;46.308;4.600;2023-04-25T05:16:17;17.85;;;9.48;;
30543;SDS011;43388;46.308;4.600;2023-04-25T05:18:43;14.35;;;8.50;;
30543;SDS011;43388;46.308;4.600;2023-04-25T05:21:09;13.57;;;8.82;;
30543;SDS011;43388;46.308;4.600;2023-04-25T05:23:35;15.07;;;8.65;;
30543;SDS011;43388;46.308;4.600;2023-04-25T05:26:01;11.70;;;8.48;;
30543;SDS011;43388;46.308;4.600;2023-04-25T05:28:27;12.93;;;9.15;;
30543;SDS011;43388;46.308;4.600;2023-04-25T05:30:53;18.67;;;8.88;;
30543;SDS011;43388;46.308;4.600;2023-04-25T05:33:19;16.75;;;9.60;;
30543;SDS011;43388;46.308;4.600;2023-04-25T05:35:46;16.42;;;9.52;;
30543;SDS011;43388;46.308;4.600;2023-04-25T05:38:12;12.23;;;8.20;;
30543;SDS011;43388;46.308;4.600;2023-04-25T05:40:38;18.27;;;9.02;;
30543;SDS011;43388;46.308;4.600;2023-04-25T05:43:04;21.55;;;7.85;;
30543;SDS011;43388;46.308;4.600;2023-04-25T05:45:30;11.80;;;7.13;;
30543;SDS011;43388;46.308;4.600;2023-04-25T05:47:56;11.98;;;7.63;;
30543;SDS011;43388;46.308;4.600;2023-04-25T05:50:22;10.65;;;7.88;;
30543;SDS011;43388;46.308;4.600;2023-04-25T05:52:48;11.43;;;7.80;;
30543;SDS011;43388;46.308;4.600;2023-04-25T05:55:14;11.15;;;8.13;;
30543;SDS011;43388;46.308;4.600;2023-04-25T05:57:40;24.08;;;8.05;;
30543;SDS011;43388;46.308;4.600;2023-04-25T06:00:08;11.82;;;7.55;;
30543;SDS011;43388;46.308;4.600;2023-04-25T06:02:34;11.32;;;8.70;;
30543;SDS011;43388;46.308;4.600;2023-04-25T06:05:00;14.40;;;8.93;;
30543;SDS011;43388;46.308;4.600;2023-04-25T06:07:28;15.13;;;8.82;;
30543;SDS011;43388;46.308;4.600;2023-04-25T06:09:55;11.85;;;9.15;;
30543;SDS011;43388;46.308;4.600;2023-04-25T06:12:21;13.52;;;8.13;;
30543;SDS011;43388;46.308;4.600;2023-04-25T06:14:47;11.43;;;8.32;;
30543;SDS011;43388;46.308;4.600;2023-04-25T06:17:13;17.33;;;8.00;;
30543;SDS011;43388;46.308;4.600;2023-04-25T06:19:39;13.05;;;7.75;;
30543;SDS011;43388;46.308;4.600;2023-04-25T06:22:07;10.30;;;7.53;;
30543;SDS011;43388;46.308;4.600;2023-04-25T06:24:33;18.25;;;7.25;;
30543;SDS011;43388;46.308;4.600;2023-04-25T06:27:00;13.25;;;7.82;;
30543;SDS011;43388;46.308;4.600;2023-04-25T06:29:26;13.35;;;7.57;;
30543;SDS011;43388;46.308;4.600;2023-04-25T06:31:52;9.75;;;6.82;;
30543;SDS011;43388;46.308;4.600;2023-04-25T06:34:18;14.70;;;7.28;;
30543;SDS011;43388;46.308;4.600;2023-04-25T06:36:44;10.48;;;6.20;;
30543;SDS011;43388;46.308;4.600;2023-04-25T06:39:10;10.82;;;6.70;;
30543;SDS011;43388;46.308;4.600;2023-04-25T06:41:36;11.13;;;7.22;;
30543;SDS011;43388;46.308;4.600;2023-04-25T06:44:02;13.55;;;6.78;;
30543;SDS011;43388;46.308;4.600;2023-04-25T06:46:28;10.18;;;6.07;;
30543;SDS011;43388;46.308;4.600;2023-04-25T06:48:55;12.73;;;6.72;;
30543;SDS011;43388;46.308;4.600;2023-04-25T06:51:21;15.32;;;7.22;;
30543;SDS011;43388;46.308;4.600;2023-04-25T06:53:47;10.23;;;6.75;;
30543;SDS011;43388;46.308;4.600;2023-04-25T06:56:13;12.20;;;7.03;;
30543;SDS011;43388;46.308;4.600;2023-04-25T06:58:39;13.73;;;6.55;;
30543;SDS011;43388;46.308;4.600;2023-04-25T07:01:05;14.25;;;6.45;;
30543;SDS011;43388;46.308;4.600;2023-04-25T07:03:31;14.98;;;5.93;;
30543;SDS011;43388;46.308;4.600;2023-04-25T07:05:57;12.15;;;6.53;;
30543;SDS011;43388;46.308;4.600;2023-04-25T07:08:23;11.70;;;6.30;;
30543;SDS011;43388;46.308;4.600;2023-04-25T07:10:49;14.80;;;6.68;;
30543;SDS011;43388;46.308;4.600;2023-04-25T07:13:15;10.27;;;6.88;;
30543;SDS011;43388;46.308;4.600;2023-04-25T07:15:41;8.77;;;6.85;;
30543;SDS011;43388;46.308;4.600;2023-04-25T07:18:07;11.73;;;6.40;;
30543;SDS011;43388;46.308;4.600;2023-04-25T07:20:33;10.23;;;6.35;;
30543;SDS011;43388;46.308;4.600;2023-04-25T07:22:59;9.30;;;5.95;;
30543;SDS011;43388;46.308;4.600;2023-04-25T07:25:25;11.98;;;6.35;;
30543;SDS011;43388;46.308;4.600;2023-04-25T07:27:51;8.48;;;6.45;;
30543;SDS011;43388;46.308;4.600;2023-04-25T07:30:17;10.35;;;6.63;;
30543;SDS011;43388;46.308;4.600;2023-04-25T07:32:43;8.15;;;5.63;;
30543;SDS011;43388;46.308;4.600;2023-04-25T07:35:10;13.00;;;6.53;;
30543;SDS011;43388;46.308;4.600;2023-04-25T07:37:36;10.80;;;6.50;;
30543;SDS011;43388;46.308;4.600;2023-04-25T07:40:02;14.70;;;7.25;;
30543;SDS011;43388;46.308;4.600;2023-04-25T07:42:29;12.18;;;7.30;;
30543;SDS011;43388;46.308;4.600;2023-04-25T07:44:55;11.57;;;6.88;;
30543;SDS011;43388;46.308;4.600;2023-04-25T07:47:21;13.93;;;7.45;;
30543;SDS011;43388;46.308;4.600;2023-04-25T07:49:47;11.40;;;7.38;;
30543;SDS011;43388;46.308;4.600;2023-04-25T07:52:13;13.88;;;6.55;;
30543;SDS011;43388;46.308;4.600;2023-04-25T07:54:39;14.48;;;6.75;;
30543;SDS011;43388;46.308;4.600;2023-04-25T07:57:06;7.45;;;6.43;;
30543;SDS011;43388;46.308;4.600;2023-04-25T07:59:32;11.43;;;8.10;;
30543;SDS011;43388;46.308;4.600;2023-04-25T08:01:58;7.95;;;6.07;;
30543;SDS011;43388;46.308;4.600;2023-04-25T08:04:24;12.93;;;6.68;;
30543;SDS011;43388;46.308;4.600;2023-04-25T08:06:50;8.20;;;6.43;;
30543;SDS011;43388;46.308;4.600;2023-04-25T08:09:18;13.15;;;7.13;;
30543;SDS011;43388;46.308;4.600;2023-04-25T08:11:44;10.90;;;6.63;;
30543;SDS011;43388;46.308;4.600;2023-04-25T08:14:11;11.68;;;7.13;;
30543;SDS011;43388;46.308;4.600;2023-04-25T08:16:37;11.70;;;6.68;;
30543;SDS011;43388;46.308;4.600;2023-04-25T08:19:03;10.57;;;6.78;;
30543;SDS011;43388;46.308;4.600;2023-04-25T08:21:30;9.65;;;7.38;;
30543;SDS011;43388;46.308;4.600;2023-04-25T08:23:56;9.52;;;6.47;;
30543;SDS011;43388;46.308;4.600;2023-04-25T08:26:23;7.90;;;6.63;;
30543;SDS011;43388;46.308;4.600;2023-04-25T08:28:49;9.75;;;6.85;;
30543;SDS011;43388;46.308;4.600;2023-04-25T08:31:16;8.55;;;6.80;;
30543;SDS011;43388;46.308;4.600;2023-04-25T08:33:42;11.77;;;6.30;;
30543;SDS011;43388;46.308;4.600;2023-04-25T08:36:09;8.27;;;6.55;;
30543;SDS011;43388;46.308;4.600;2023-04-25T08:38:35;12.32;;;6.65;;
30543;SDS011;43388;46.308;4.600;2023-04-25T08:41:01;8.23;;;6.00;;
30543;SDS011;43388;46.308;4.600;2023-04-25T08:43:28;11.15;;;6.63;;
30543;SDS011;43388;46.308;4.600;2023-04-25T08:45:57;9.48;;;5.97;;
30543;SDS011;43388;46.308;4.600;2023-04-25T08:48:24;11.65;;;6.03;;
30543;SDS011;43388;46.308;4.600;2023-04-25T08:50:53;13.43;;;5.70;;
30543;SDS011;43388;46.308;4.600;2023-04-25T08:53:29;16.40;;;6.45;;
30543;SDS011;43388;46.308;4.600;2023-04-25T08:55:56;9.40;;;5.63;;
30543;SDS011;43388;46.308;4.600;2023-04-25T08:58:22;8.27;;;5.90;;
30543;SDS011;43388;46.308;4.600;2023-04-25T09:00:49;7.35;;;5.72;;
30543;SDS011;43388;46.308;4.600;2023-04-25T09:03:15;6.53;;;5.72;;
30543;SDS011;43388;46.308;4.600;2023-04-25T09:05:42;9.00;;;5.45;;
30543;SDS011;43388;46.308;4.600;2023-04-25T09:08:08;9.80;;;5.20;;
30543;SDS011;43388;46.308;4.600;2023-04-25T09:10:34;7.90;;;5.20;;
30543;SDS011;43388;46.308;4.600;2023-04-25T09:15:30;8.20;;;4.22;;
30543;SDS011;43388;46.308;4.600;2023-04-25T09:17:56;5.47;;;4.88;;
30543;SDS011;43388;46.308;4.600;2023-04-25T09:20:22;5.82;;;4.43;;
30543;SDS011;43388;46.308;4.600;2023-04-25T09:22:49;7.00;;;4.40;;
30543;SDS011;43388;46.308;4.600;2023-04-25T09:25:26;6.15;;;3.40;;
30543;SDS011;43388;46.308;4.600;2023-04-25T09:27:53;8.00;;;5.25;;
30543;SDS011;43388;46.308;4.600;2023-04-25T09:30:28;7.38;;;4.50;;
30543;SDS011;43388;46.308;4.600;2023-04-25T09:33:05;5.57;;;4.88;;
30543;SDS011;43388;46.308;4.600;2023-04-25T09:35:35;9.35;;;4.20;;
30543;SDS011;43388;46.308;4.600;2023-04-25T09:38:06;5.70;;;4.00;;
30543;SDS011;43388;46.308;4.600;2023-04-25T09:40:32;8.82;;;3.60;;
30543;SDS011;43388;46.308;4.600;2023-04-25T09:42:58;6.32;;;3.75;;
30543;SDS011;43388;46.308;4.600;2023-04-25T09:45:25;5.40;;;4.03;;
30543;SDS011;43388;46.308;4.600;2023-04-25T09:47:55;6.35;;;4.05;;
30543;SDS011;43388;46.308;4.600;2023-04-25T09:50:22;9.05;;;4.20;;
30543;SDS011;43388;46.308;4.600;2023-04-25T09:53:02;11.27;;;3.78;;
30543;SDS011;43388;46.308;4.600;2023-04-25T09:55:31;6.75;;;4.07;;
30543;SDS011;43388;46.308;4.600;2023-04-25T09:57:57;5.40;;;3.97;;
30543;SDS011;43388;46.308;4.600;2023-04-25T10:00:26;6.15;;;3.75;;
30543;SDS011;43388;46.308;4.600;2023-04-25T10:02:52;8.30;;;4.70;;
30543;SDS011;43388;46.308;4.600;2023-04-25T10:05:18;5.90;;;4.07;;
30543;SDS011;43388;46.308;4.600;2023-04-25T10:07:44;6.53;;;4.00;;
30543;SDS011;43388;46.308;4.600;2023-04-25T10:10:11;5.68;;;4.30;;
30543;SDS011;43388;46.308;4.600;2023-04-25T10:12:38;6.93;;;4.20;;
30543;SDS011;43388;46.308;4.600;2023-04-25T10:15:05;5.95;;;3.47;;
30543;SDS011;43388;46.308;4.600;2023-04-25T10:17:33;6.72;;;3.63;;
30543;SDS011;43388;46.308;4.600;2023-04-25T10:20:01;4.93;;;3.35;;
30543;SDS011;43388;46.308;4.600;2023-04-25T10:22:35;4.78;;;2.95;;
30543;SDS011;43388;46.308;4.600;2023-04-25T10:25:02;4.03;;;3.28;;
30543;SDS011;43388;46.308;4.600;2023-04-25T10:27:29;5.45;;;3.42;;
30543;SDS011;43388;46.308;4.600;2023-04-25T10:32:31;6.65;;;3.63;;
30543;SDS011;43388;46.308;4.600;2023-04-25T10:34:58;4.35;;;3.53;;
30543;SDS011;43388;46.308;4.600;2023-04-25T10:37:35;15.32;;;4.22;;
30543;SDS011;43388;46.308;4.600;2023-04-25T10:40:10;4.18;;;3.55;;
30543;SDS011;43388;46.308;4.600;2023-04-25T10:42:37;5.40;;;3.85;;
30543;SDS011;43388;46.308;4.600;2023-04-25T10:45:04;4.50;;;3.65;;
30543;SDS011;43388;46.308;4.600;2023-04-25T10:47:36;4.00;;;3.58;;
30543;SDS011;43388;46.308;4.600;2023-04-25T10:50:09;5.70;;;3.42;;
30543;SDS011;43388;46.308;4.600;2023-04-25T10:52:36;5.10;;;3.58;;
30543;SDS011;43388;46.308;4.600;2023-04-25T10:55:04;9.38;;;2.97;;
30543;SDS011;43388;46.308;4.600;2023-04-25T10:57:39;10.63;;;2.92;;
30543;SDS011;43388;46.308;4.600;2023-04-25T11:00:09;5.30;;;3.05;;
30543;SDS011;43388;46.308;4.600;2023-04-25T11:02:37;6.07;;;3.28;;
30543;SDS011;43388;46.308;4.600;2023-04-25T11:05:03;4.97;;;3.10;;
30543;SDS011;43388;46.308;4.600;2023-04-25T11:08:02;4.70;;;2.75;;
30543;SDS011;43388;46.308;4.600;2023-04-25T11:10:28;3.45;;;2.90;;
30543;SDS011;43388;46.308;4.600;2023-04-25T11:12:54;3.92;;;2.80;;
30543;SDS011;43388;46.308;4.600;2023-04-25T11:15:21;5.32;;;2.50;;
30543;SDS011;43388;46.308;4.600;2023-04-25T11:17:47;9.95;;;3.22;;
30543;SDS011;43388;46.308;4.600;2023-04-25T11:20:13;6.63;;;3.10;;
30543;SDS011;43388;46.308;4.600;2023-04-25T11:22:40;7.00;;;3.22;;
30543;SDS011;43388;46.308;4.600;2023-04-25T11:25:10;5.88;;;3.28;;
30543;SDS011;43388;46.308;4.600;2023-04-25T11:27:37;8.13;;;3.05;;
30543;SDS011;43388;46.308;4.600;2023-04-25T11:30:11;5.80;;;3.15;;
30543;SDS011;43388;46.308;4.600;2023-04-25T11:32:38;6.45;;;3.20;;
30543;SDS011;43388;46.308;4.600;2023-04-25T11:35:04;3.75;;;2.90;;
30543;SDS011;43388;46.308;4.600;2023-04-25T11:37:31;3.80;;;2.80;;
30543;SDS011;43388;46.308;4.600;2023-04-25T11:39:57;3.35;;;2.83;;
30543;SDS011;43388;46.308;4.600;2023-04-25T11:42:23;4.53;;;3.03;;
30543;SDS011;43388;46.308;4.600;2023-04-25T11:44:49;3.60;;;3.13;;
30543;SDS011;43388;46.308;4.600;2023-04-25T11:47:15;5.60;;;2.60;;
30543;SDS011;43388;46.308;4.600;2023-04-25T11:49:41;4.97;;;2.78;;
30543;SDS011;43388;46.308;4.600;2023-04-25T11:52:07;5.85;;;3.35;;
30543;SDS011;43388;46.308;4.600;2023-04-25T11:54:36;4.63;;;2.80;;
30543;SDS011;43388;46.308;4.600;2023-04-25T11:57:03;4.68;;;2.70;;
30543;SDS011;43388;46.308;4.600;2023-04-25T11:59:29;3.88;;;2.42;;
30543;SDS011;43388;46.308;4.600;2023-04-25T12:01:55;3.67;;;2.85;;
30543;SDS011;43388;46.308;4.600;2023-04-25T12:04:23;5.63;;;2.75;;
30543;SDS011;43388;46.308;4.600;2023-04-25T12:06:50;4.05;;;3.00;;
30543;SDS011;43388;46.308;4.600;2023-04-25T12:09:18;3.63;;;2.60;;
30543;SDS011;43388;46.308;4.600;2023-04-25T12:11:44;3.53;;;2.50;;
30543;SDS011;43388;46.308;4.600;2023-04-25T12:14:11;6.40;;;3.00;;
30543;SDS011;43388;46.308;4.600;2023-04-25T12:16:41;3.40;;;2.38;;
30543;SDS011;43388;46.308;4.600;2023-04-25T12:19:07;8.88;;;3.05;;
30543;SDS011;43388;46.308;4.600;2023-04-25T12:21:34;5.28;;;2.60;;
30543;SDS011;43388;46.308;4.600;2023-04-25T12:24:10;3.17;;;2.75;;
30543;SDS011;43388;46.308;4.600;2023-04-25T12:26:46;3.30;;;2.65;;
30543;SDS011;43388;46.308;4.600;2023-04-25T12:29:31;3.38;;;2.60;;
30543;SDS011;43388;46.308;4.600;2023-04-25T12:31:57;2.90;;;2.53;;
30543;SDS011;43388;46.308;4.600;2023-04-25T12:34:24;3.53;;;2.65;;
30543;SDS011;43388;46.308;4.600;2023-04-25T12:36:51;5.07;;;2.67;;
30543;SDS011;43388;46.308;4.600;2023-04-25T12:39:18;6.57;;;2.53;;
30543;SDS011;43388;46.308;4.600;2023-04-25T12:41:44;3.22;;;2.30;;
30543;SDS011;43388;46.308;4.600;2023-04-25T12:44:11;7.68;;;2.97;;
30543;SDS011;43388;46.308;4.600;2023-04-25T12:46:37;4.05;;;2.63;;
30543;SDS011;43388;46.308;4.600;2023-04-25T12:49:04;5.60;;;3.00;;
30543;SDS011;43388;46.308;4.600;2023-04-25T12:51:32;5.85;;;3.22;;
30543;SDS011;43388;46.308;4.600;2023-04-25T12:53:59;3.17;;;2.42;;
30543;SDS011;43388;46.308;4.600;2023-04-25T12:56:25;2.88;;;2.65;;
30543;SDS011;43388;46.308;4.600;2023-04-25T12:58:52;3.90;;;2.55;;
30543;SDS011;43388;46.308;4.600;2023-04-25T13:01:18;3.60;;;2.92;;
30543;SDS011;43388;46.308;4.600;2023-04-25T13:03:45;4.55;;;3.20;;
30543;SDS011;43388;46.308;4.600;2023-04-25T13:06:11;7.18;;;3.65;;
30543;SDS011;43388;46.308;4.600;2023-04-25T13:08:38;6.03;;;3.00;;
30543;SDS011;43388;46.308;4.600;2023-04-25T13:11:04;4.95;;;2.58;;
30543;SDS011;43388;46.308;4.600;2023-04-25T13:13:30;4.13;;;2.50;;
30543;SDS011;43388;46.308;4.600;2023-04-25T13:15:57;3.38;;;2.90;;
30543;SDS011;43388;46.308;4.600;2023-04-25T13:18:23;3.17;;;2.60;;
30543;SDS011;43388;46.308;4.600;2023-04-25T13:20:52;7.78;;;3.05;;
30543;SDS011;43388;46.308;4.600;2023-04-25T13:23:19;4.68;;;2.80;;
30543;SDS011;43388;46.308;4.600;2023-04-25T13:25:48;3.85;;;2.72;;
30543;SDS011;43388;46.308;4.600;2023-04-25T13:28:14;4.22;;;2.53;;
30543;SDS011;43388;46.308;4.600;2023-04-25T13:30:41;6.57;;;2.50;;
30543;SDS011;43388;46.308;4.600;2023-04-25T13:33:07;3.75;;;2.78;;
30543;SDS011;43388;46.308;4.600;2023-04-25T13:35:34;4.00;;;2.47;;
30543;SDS011;43388;46.308;4.600;2023-04-25T13:38:00;4.43;;;2.67;;
30543;SDS011;43388;46.308;4.600;2023-04-25T13:40:26;3.78;;;2.45;;
30543;SDS011;43388;46.308;4.600;2023-04-25T13:42:53;4.07;;;2.15;;
30543;SDS011;43388;46.308;4.600;2023-04-25T13:45:19;4.15;;;2.33;;
30543;SDS011;43388;46.308;4.600;2023-04-25T13:47:45;5.47;;;2.80;;
30543;SDS011;43388;46.308;4.600;2023-04-25T13:50:12;4.72;;;2.42;;
30543;SDS011;43388;46.308;4.600;2023-04-25T13:52:38;5.97;;;2.67;;
30543;SDS011;43388;46.308;4.600;2023-04-25T13:55:05;4.55;;;2.25;;
30543;SDS011;43388;46.308;4.600;2023-04-25T13:57:32;3.95;;;2.47;;
30543;SDS011;43388;46.308;4.600;2023-04-25T13:59:58;4.68;;;2.60;;
30543;SDS011;43388;46.308;4.600;2023-04-25T14:02:24;2.90;;;2.58;;
30543;SDS011;43388;46.308;4.600;2023-04-25T14:04:51;2.78;;;2.17;;
30543;SDS011;43388;46.308;4.600;2023-04-25T14:07:17;6.15;;;2.55;;
30543;SDS011;43388;46.308;4.600;2023-04-25T14:09:44;4.63;;;2.20;;
30543;SDS011;43388;46.308;4.600;2023-04-25T14:12:10;2.92;;;2.38;;
30543;SDS011;43388;46.308;4.600;2023-04-25T14:14:36;5.18;;;2.55;;
30543;SDS011;43388;46.308;4.600;2023-04-25T14:17:03;5.20;;;2.28;;
30543;SDS011;43388;46.308;4.600;2023-04-25T14:19:29;4.03;;;2.53;;
30543;SDS011;43388;46.308;4.600;2023-04-25T14:21:55;8.32;;;2.95;;
30543;SDS011;43388;46.308;4.600;2023-04-25T14:24:21;2.78;;;2.45;;
30543;SDS011;43388;46.308;4.600;2023-04-25T14:26:47;4.82;;;2.42;;
30543;SDS011;43388;46.308;4.600;2023-04-25T14:29:13;5.43;;;2.60;;
30543;SDS011;43388;46.308;4.600;2023-04-25T14:31:40;3.03;;;2.40;;
30543;SDS011;43388;46.308;4.600;2023-04-25T14:34:06;5.85;;;2.38;;
30543;SDS011;43388;46.308;4.600;2023-04-25T14:36:32;3.78;;;2.28;;
30543;SDS011;43388;46.308;4.600;2023-04-25T14:38:58;3.08;;;2.45;;
30543;SDS011;43388;46.308;4.600;2023-04-25T14:41:25;6.05;;;2.58;;
30543;SDS011;43388;46.308;4.600;2023-04-25T14:43:51;3.22;;;2.40;;